North Branford, CT

6:22 AM EDT on May 06, 2015 (GMT -0400)
Branford | | Change Station
CLOSE
Current Station
Personal Weather Station
Location: Branford, CT
Elevation: 125 ft
Nearby Weather Stations

Elev 125 ft 41.30 °N, 72.79 °W | Updated 28 seconds ago

Overcast
Overcast
61.3 °F
Feels Like 61.3 °F
N
0.1
Wind Variable Wind from NNE
Gusts 1.2 mph

Today
High -- | Low -- °F
--% Chance of Precip.
Yesterday
High -- | Low -- °F
Precip. -- in
5:42 AM 7:53 PM
Waning Gibbous, 95% visible
Pressure 30.22 in
Visibility 10.0 miles
Clouds Scattered Clouds 4500 ft
Mostly Cloudy 10000 ft
Overcast 12000 ft
Dew Point 41 °F
Humidity 47%
Rainfall 0.00 in
Snow Depth Not available.
UV 0 out of 12
Pollen 9.00 out of 12
Air Quality Not available.
Flu Activity Widespread
METAR KHVN 060953Z 02010KT 10SM SCT045 BKN100 OVC120 17/04 A3022 RMK AO2 SLP234 T01670039

More Conditions Fewer Conditions

Pressure 30.22 in
Visibility 10.0 miles
Clouds Scattered Clouds 4500 ft
Mostly Cloudy 10000 ft
Overcast 12000 ft
Dew Point 41 °F
Humidity 47%
Rainfall 0.00 in
Snow Depth Not available.
UV 0 out of 12
Pollen 9.00 out of 12
Air Quality Not available.
Flu Activity Widespread
METAR KHVN 060953Z 02010KT 10SM SCT045 BKN100 OVC120 17/04 A3022 RMK AO2 SLP234 T01670039

More Conditions Fewer Conditions

10-Day Weather Forecast

Almanac

Astronomy

May. 06, 2015 Rise Set
Actual Time
Civil Twilight
Nautical Twilight
Astronomical Twilight
Moon
Length of Visible Light
Length of Day
Tomorrow will be .
, % of the Moon is Illuminated

Today's Extremes

State Highs State Lows

Community

WunderPhotos

Upload Photos

1,818,859 photos uploaded!

WunderBlogs® & News

Nearby

Air Quality

  Air Quality AQ Index Pollutant
Not available.

Snow Depth

Station Depth Elevation

Earthquake Activity

City Distance Mag. Time & Date
Minimum magnitude displayed is 2.5.

Coastal Water Temperatures

Place Temperature

Stations

Nearby Weather Stations

Station Location Temp. Windchill Dew Point Humidity Wind Precip. Elev Updated Type